Time;durP1;ratioP1;P1;durP2;ratioP2;P2;SDS_P1;SDS_P2;PMS_P1;PMS_P2;Temp;Humidity;BMP_temperature;BMP_pressure;BME280_temperature;BME280_humidity;BME280_pressure;Samples;Min_cycle;Max_cycle;Signal;HPM_P1;HPM_P2
2022/05/29 00:00:15;;;;;;;;;12.33;12.33;21.10;53.80;;;;;;4957008;28;8784;-78
2022/05/29 00:02:41;;;;;;;;;6.67;6.67;21.10;53.90;;;;;;4957952;28;8823;-80
2022/05/29 00:05:08;;;;;;;;;11.00;11.00;21.10;53.50;;;;;;4957978;28;8777;-79
2022/05/29 00:07:34;;;;;;;;;8.00;8.00;21.20;53.70;;;;;;4960317;28;9463;-78
2022/05/29 00:10:04;;;;;;;;;9.33;9.33;21.10;53.50;;;;;;4968118;28;8788;-78
2022/05/29 00:12:30;;;;;;;;;8.33;8.33;21.00;53.30;;;;;;4964643;28;8805;-79
2022/05/29 00:14:55;;;;;;;;;10.33;10.33;21.10;53.70;;;;;;4962917;28;8914;-79
2022/05/29 00:17:22;;;;;;;;;10.67;10.67;20.90;54.40;;;;;;4957737;28;8785;-79
2022/05/29 00:19:48;;;;;;;;;9.67;9.67;20.90;54.40;;;;;;4957889;28;8788;-78
2022/05/29 00:22:20;;;;;;;;;10.67;10.67;21.00;54.20;;;;;;4957539;28;8816;-79
2022/05/29 00:24:47;;;;;;;;;7.67;7.67;21.10;53.20;;;;;;4956508;28;8796;-79
2022/05/29 00:27:16;;;;;;;;;9.33;9.33;21.10;54.00;;;;;;4957556;28;8764;-78
2022/05/29 00:29:42;;;;;;;;;8.00;8.00;21.10;52.80;;;;;;4956681;28;8780;-78
2022/05/29 00:32:09;;;;;;;;;8.67;8.67;20.80;52.60;;;;;;4962732;28;8882;-77
2022/05/29 00:34:35;;;;;;;;;8.33;8.33;20.80;52.50;;;;;;4968254;28;11554;-78
2022/05/29 00:37:05;;;;;;;;;9.00;9.00;20.90;53.00;;;;;;4957387;28;8784;-77
2022/05/29 00:39:32;;;;;;;;;5.33;5.33;21.00;52.80;;;;;;4957304;28;9427;-78
2022/05/29 00:41:58;;;;;;;;;5.33;5.33;21.00;52.60;;;;;;4957465;28;8827;-79
2022/05/29 00:44:29;;;;;;;;;5.00;5.00;21.00;53.10;;;;;;4956935;28;8848;-76
2022/05/29 00:46:58;;;;;;;;;11.00;11.00;20.90;53.20;;;;;;4957202;28;8780;-77
2022/05/29 00:49:27;;;;;;;;;7.00;7.00;20.80;53.80;;;;;;4957400;28;8861;-77
2022/05/29 00:51:58;;;;;;;;;7.00;7.00;20.90;54.20;;;;;;4957169;28;8768;-77
2022/05/29 00:54:25;;;;;;;;;7.67;7.67;20.90;51.60;;;;;;4957368;28;8776;-77
2022/05/29 00:56:52;;;;;;;;;7.33;7.33;20.90;52.10;;;;;;4957026;28;8780;-77
2022/05/29 00:59:21;;;;;;;;;7.00;7.00;21.00;52.20;;;;;;4957054;28;8811;-77
2022/05/29 01:01:49;;;;;;;;;7.00;7.00;20.90;52.20;;;;;;4956889;28;8832;-77
2022/05/29 01:04:15;;;;;;;;;7.33;7.33;20.80;52.20;;;;;;4956957;28;8783;-77
2022/05/29 01:06:41;;;;;;;;;9.00;9.00;20.80;52.40;;;;;;4957097;28;8792;-77
2022/05/29 01:09:09;;;;;;;;;6.00;6.00;20.90;52.80;;;;;;4956771;28;8822;-77
2022/05/29 01:11:56;;;;;;;;;8.00;8.00;20.90;52.80;;;;;;4957089;28;8881;-77
2022/05/29 01:14:41;;;;;;;;;8.33;8.33;20.90;52.80;;;;;;4956758;28;8812;-77
2022/05/29 01:17:21;;;;;;;;;9.00;9.00;20.80;52.70;;;;;;4956692;28;8796;-77
2022/05/29 01:20:08;;;;;;;;;8.33;8.33;20.80;52.60;;;;;;4956944;28;8878;-77
2022/05/29 01:23:05;;;;;;;;;7.00;7.00;20.90;53.60;;;;;;4956668;28;8807;-78
2022/05/29 01:26:07;;;;;;;;;8.67;8.67;20.90;53.20;;;;;;4956429;28;8799;-77
2022/05/29 01:28:51;;;;;;;;;9.33;9.33;20.90;53.30;;;;;;4956575;28;8779;-77
2022/05/29 01:31:38;;;;;;;;;9.67;9.67;21.00;53.00;;;;;;4955476;28;8824;-77
2022/05/29 01:34:35;;;;;;;;;10.00;10.00;20.50;53.80;;;;;;4967025;28;11638;-77
2022/05/29 01:37:20;;;;;;;;;7.00;7.00;20.60;54.20;;;;;;4975950;28;8786;-77
2022/05/29 01:40:08;;;;;;;;;7.67;7.67;20.70;54.10;;;;;;4975663;28;8791;-77
2022/05/29 01:42:36;;;;;;;;;10.00;10.00;20.80;53.20;;;;;;4975665;28;8820;-77
2022/05/29 01:45:11;;;;;;;;;9.00;9.00;20.70;52.50;;;;;;4975346;28;8833;-78
2022/05/29 01:47:46;;;;;;;;;8.67;8.67;20.80;52.60;;;;;;4975664;28;8797;-77
2022/05/29 01:50:20;;;;;;;;;8.33;8.33;20.90;53.40;;;;;;4990849;28;8746;-77
2022/05/29 01:53:02;;;;;;;;;8.00;8.00;20.90;53.00;;;;;;4975608;28;8777;-77
2022/05/29 01:55:36;;;;;;;;;7.67;7.67;21.00;52.30;;;;;;4975584;28;8777;-77
2022/05/29 01:58:08;;;;;;;;;8.00;8.00;20.80;52.10;;;;;;4975800;28;8770;-77
2022/05/29 02:00:34;;;;;;;;;6.00;6.00;20.80;51.60;;;;;;4975499;28;8753;-77
2022/05/29 02:03:28;;;;;;;;;8.00;8.00;20.70;51.80;;;;;;4974684;28;8895;-78
2022/05/29 02:05:58;;;;;;;;;6.00;6.00;20.80;51.60;;;;;;4960938;28;8923;-77
2022/05/29 02:08:34;;;;;;;;;7.67;7.67;20.90;52.20;;;;;;4958620;28;8792;-77
2022/05/29 02:11:05;;;;;;;;;9.67;9.67;21.00;52.40;;;;;;4957319;28;8784;-77
2022/05/29 02:13:36;;;;;;;;;11.33;11.33;20.90;52.60;;;;;;4959885;28;8848;-77
2022/05/29 02:16:08;;;;;;;;;13.00;13.00;20.90;52.90;;;;;;4959968;28;8878;-77
2022/05/29 02:19:01;;;;;;;;;8.67;8.67;20.80;53.80;;;;;;4959892;28;8780;-77
2022/05/29 02:21:32;;;;;;;;;7.67;7.67;20.80;52.70;;;;;;4951889;28;8796;-77
2022/05/29 02:24:04;;;;;;;;;9.67;9.67;20.80;53.50;;;;;;4959816;28;9427;-77
2022/05/29 02:26:37;;;;;;;;;8.00;8.00;20.70;53.40;;;;;;4959746;28;8748;-77
2022/05/29 02:29:09;;;;;;;;;10.00;10.00;20.80;53.40;;;;;;4959987;28;8776;-77
2022/05/29 02:32:00;;;;;;;;;11.33;11.33;21.00;53.40;;;;;;4959722;28;8764;-77
2022/05/29 02:34:43;;;;;;;;;7.33;7.33;21.00;53.30;;;;;;4959586;28;8772;-77
2022/05/29 02:37:15;;;;;;;;;8.33;8.33;20.90;53.10;;;;;;4959871;28;8764;-78
2022/05/29 02:39:52;;;;;;;;;9.00;9.00;20.90;53.30;;;;;;4959511;28;8878;-77
2022/05/29 02:42:24;;;;;;;;;9.00;9.00;20.80;54.00;;;;;;4958282;28;8827;-78
2022/05/29 02:45:32;;;;;;;;;10.67;10.67;20.90;53.80;;;;;;4959180;28;9506;-77
2022/05/29 02:48:19;;;;;;;;;10.00;10.00;20.80;54.30;;;;;;4963813;28;8831;-77
2022/05/29 02:51:10;;;;;;;;;12.00;12.00;20.80;54.40;;;;;;4963183;28;8904;-78
2022/05/29 02:53:43;;;;;;;;;9.00;9.00;20.90;54.30;;;;;;4978852;28;8786;-79
2022/05/29 02:56:09;;;;;;;;;8.33;8.33;20.80;55.00;;;;;;4978861;28;8781;-77
2022/05/29 02:58:38;;;;;;;;;9.33;9.33;20.90;53.80;;;;;;4978439;28;8796;-78
2022/05/29 03:01:18;;;;;;;;;7.00;7.00;20.90;53.50;;;;;;4978404;28;8765;-78
2022/05/29 03:03:58;;;;;;;;;9.67;9.67;21.00;53.60;;;;;;4978603;28;8797;-78
2022/05/29 03:06:30;;;;;;;;;8.00;8.00;21.00;53.30;;;;;;4978400;28;8773;-77
2022/05/29 03:09:05;;;;;;;;;10.00;10.00;21.00;53.80;;;;;;4978358;28;8773;-77
2022/05/29 03:11:39;;;;;;;;;12.00;12.00;20.80;53.70;;;;;;4978245;28;8792;-77
2022/05/29 03:14:31;;;;;;;;;10.33;10.33;20.80;53.90;;;;;;4978124;28;8822;-78
2022/05/29 03:17:23;;;;;;;;;7.33;7.33;20.80;53.50;;;;;;4968107;28;8825;-78
2022/05/29 03:20:07;;;;;;;;;10.00;10.00;20.70;53.60;;;;;;4978467;28;8864;-77
2022/05/29 03:23:00;;;;;;;;;9.33;9.33;20.60;54.00;;;;;;4978023;28;8820;-78
2022/05/29 03:25:55;;;;;;;;;7.33;7.33;20.70;54.20;;;;;;4978070;28;9519;-78
2022/05/29 03:29:03;;;;;;;;;9.33;9.33;20.80;54.30;;;;;;4974055;28;8774;-78
2022/05/29 03:31:30;;;;;;;;;7.00;7.00;20.70;54.30;;;;;;4899560;29;8797;-78
2022/05/29 03:33:56;;;;;;;;;10.00;10.00;20.80;54.40;;;;;;4899543;29;8884;-78
2022/05/29 03:36:25;;;;;;;;;10.67;10.67;20.80;54.60;;;;;;4899448;29;9416;-78
2022/05/29 03:38:51;;;;;;;;;11.67;11.67;20.80;54.10;;;;;;4880160;29;8807;-76
2022/05/29 03:41:39;;;;;;;;;9.67;9.67;21.00;54.20;;;;;;4887895;29;8799;-79
2022/05/29 03:44:06;;;;;;;;;12.00;12.00;21.10;53.90;;;;;;4869944;29;9558;-77
2022/05/29 03:46:32;;;;;;;;;11.33;11.33;21.00;54.20;;;;;;4899262;29;8797;-77
2022/05/29 03:48:58;;;;;;;;;8.67;8.67;20.90;54.10;;;;;;4899510;29;9519;-78
2022/05/29 03:51:23;;;;;;;;;10.33;10.33;21.00;54.40;;;;;;4899436;29;8896;-78
2022/05/29 03:53:49;;;;;;;;;10.33;10.33;21.00;54.80;;;;;;4899198;29;8873;-77
2022/05/29 03:56:15;;;;;;;;;11.33;11.33;21.00;54.50;;;;;;4899393;29;8785;-77
2022/05/29 03:58:40;;;;;;;;;14.33;14.33;21.10;54.80;;;;;;4899148;29;8897;-78
2022/05/29 04:01:07;;;;;;;;;10.00;10.00;20.90;54.40;;;;;;4904334;28;8797;-78
2022/05/29 04:03:35;;;;;;;;;12.33;12.33;21.00;54.40;;;;;;4977244;28;8875;-78
2022/05/29 04:06:01;;;;;;;;;10.00;10.00;21.10;54.20;;;;;;4977295;28;8785;-78
2022/05/29 04:13:58;;;;;;;;;10.67;10.67;21.10;54.30;;;;;;4975652;28;8829;-78
2022/05/29 04:16:23;;;;;;;;;8.00;8.00;21.10;54.50;;;;;;4959300;28;8869;-79
2022/05/29 04:18:49;;;;;;;;;8.67;8.67;21.20;54.60;;;;;;4963305;28;8897;-78
2022/05/29 04:21:15;;;;;;;;;8.33;8.33;21.20;53.70;;;;;;4977213;28;8804;-78
2022/05/29 04:23:40;;;;;;;;;10.00;10.00;21.20;53.30;;;;;;4973737;28;8840;-78
2022/05/29 04:26:06;;;;;;;;;4.33;4.33;21.30;53.30;;;;;;4967639;28;8817;-78
2022/05/29 04:28:32;;;;;;;;;8.00;8.00;21.30;52.80;;;;;;4965177;28;8824;-78
2022/05/29 04:30:58;;;;;;;;;5.67;5.67;21.40;52.00;;;;;;4965261;28;8824;-78
2022/05/29 04:33:24;;;;;;;;;7.67;7.67;21.40;52.60;;;;;;4976515;28;8789;-78
2022/05/29 04:35:52;;;;;;;;;8.00;8.00;21.40;52.10;;;;;;4976963;28;9459;-78
2022/05/29 04:38:20;;;;;;;;;8.33;8.33;21.50;51.90;;;;;;4975123;28;11518;-78
2022/05/29 04:40:46;;;;;;;;;7.33;7.33;21.20;51.20;;;;;;4970024;28;8899;-78
2022/05/29 04:43:13;;;;;;;;;5.33;5.33;21.40;51.20;;;;;;4957877;28;11542;-78
2022/05/29 04:45:43;;;;;;;;;10.00;10.00;21.50;51.30;;;;;;4976673;28;8820;-78
2022/05/29 04:48:09;;;;;;;;;6.67;6.67;21.40;51.00;;;;;;4991518;28;9440;-78
2022/05/29 04:50:38;;;;;;;;;7.67;7.67;21.20;51.70;;;;;;4976375;28;8813;-77
2022/05/29 04:53:04;;;;;;;;;6.67;6.67;21.30;52.30;;;;;;4976404;28;8793;-77
2022/05/29 04:55:30;;;;;;;;;8.00;8.00;21.30;51.90;;;;;;4976249;28;11560;-78
2022/05/29 04:57:56;;;;;;;;;8.00;8.00;21.50;51.20;;;;;;4976237;28;11485;-78
2022/05/29 05:00:23;;;;;;;;;7.67;7.67;21.70;50.30;;;;;;4976227;28;8800;-78
2022/05/29 05:02:48;;;;;;;;;8.33;8.33;21.70;49.30;;;;;;4976193;28;8845;-78
2022/05/29 05:05:15;;;;;;;;;8.00;8.00;21.70;49.30;;;;;;4976261;28;11494;-78
2022/05/29 05:07:41;;;;;;;;;8.00;8.00;21.70;49.50;;;;;;4976116;28;8885;-78
2022/05/29 05:10:14;;;;;;;;;10.33;10.33;21.70;50.50;;;;;;4976346;28;9486;-77
2022/05/29 05:12:41;;;;;;;;;10.33;10.33;21.80;50.40;;;;;;4976131;28;8802;-78
2022/05/29 05:15:08;;;;;;;;;9.67;9.67;22.00;50.80;;;;;;4976513;28;8932;-78
2022/05/29 05:17:35;;;;;;;;;10.00;10.00;21.80;50.30;;;;;;4975915;28;8786;-78
2022/05/29 05:20:00;;;;;;;;;8.67;8.67;22.00;50.00;;;;;;4974948;28;8810;-78
2022/05/29 05:22:26;;;;;;;;;10.33;10.33;22.00;49.70;;;;;;4965496;28;8832;-78
2022/05/29 05:24:52;;;;;;;;;10.00;10.00;22.10;50.10;;;;;;4956821;28;8779;-78
2022/05/29 05:27:18;;;;;;;;;7.33;7.33;22.10;49.80;;;;;;4956591;28;8875;-78
2022/05/29 05:29:44;;;;;;;;;9.00;9.00;21.90;50.50;;;;;;4971519;28;8792;-78
2022/05/29 05:32:10;;;;;;;;;10.00;10.00;21.80;50.30;;;;;;4956580;28;9527;-77
2022/05/29 05:34:36;;;;;;;;;8.67;8.67;22.00;50.50;;;;;;4956537;28;11508;-78
2022/05/29 05:37:03;;;;;;;;;9.00;9.00;22.10;50.10;;;;;;4961489;28;11618;-77
2022/05/29 05:39:28;;;;;;;;;10.33;10.33;22.20;49.50;;;;;;4966210;28;8982;-77
2022/05/29 05:41:54;;;;;;;;;10.33;10.33;22.20;49.00;;;;;;4968892;28;10878;-78
2022/05/29 05:44:20;;;;;;;;;10.33;10.33;22.30;49.60;;;;;;4975300;28;8853;-79
2022/05/29 05:46:49;;;;;;;;;12.33;12.33;22.40;48.80;;;;;;4974705;28;8773;-78
2022/05/29 05:49:18;;;;;;;;;9.67;9.67;22.30;49.50;;;;;;4975441;28;8785;-78
2022/05/29 05:51:45;;;;;;;;;11.33;11.33;22.40;49.30;;;;;;4975540;28;8782;-78
2022/05/29 05:54:12;;;;;;;;;11.00;11.00;22.10;48.90;;;;;;4975435;28;8789;-78
2022/05/29 05:56:44;;;;;;;;;11.00;11.00;22.00;49.40;;;;;;4975356;28;8813;-77
2022/05/29 05:59:11;;;;;;;;;11.67;11.67;21.90;50.10;;;;;;4975463;28;8766;-78
2022/05/29 06:01:37;;;;;;;;;13.33;13.33;22.00;49.90;;;;;;4975414;28;8762;-78
2022/05/29 06:04:03;;;;;;;;;12.33;12.33;21.90;50.30;;;;;;4974379;28;8774;-78
2022/05/29 06:06:29;;;;;;;;;16.67;16.67;22.20;49.30;;;;;;4974239;28;9637;-78
2022/05/29 06:08:56;;;;;;;;;17.33;17.33;22.40;48.90;;;;;;4975653;28;8793;-78
2022/05/29 06:11:23;;;;;;;;;13.00;13.00;22.40;48.30;;;;;;4975593;28;8777;-78
2022/05/29 06:13:49;;;;;;;;;12.67;12.67;22.50;48.70;;;;;;4990370;28;8817;-78
2022/05/29 06:16:15;;;;;;;;;19.33;19.33;22.20;49.10;;;;;;4975541;28;8855;-77
2022/05/29 06:18:41;;;;;;;;;17.00;17.00;22.20;48.90;;;;;;4975240;28;8754;-78
2022/05/29 06:21:07;;;;;;;;;13.67;13.67;22.40;48.60;;;;;;4975370;28;8773;-78
2022/05/29 06:23:36;;;;;;;;;13.33;13.33;22.40;48.50;;;;;;4975349;28;8809;-79
2022/05/29 06:26:07;;;;;;;;;9.33;9.33;22.40;49.00;;;;;;4975165;28;8770;-78
2022/05/29 06:28:34;;;;;;;;;12.33;12.33;22.30;49.50;;;;;;4975231;28;8876;-78
2022/05/29 06:31:02;;;;;;;;;12.00;12.00;22.40;49.20;;;;;;4975500;28;8769;-78
2022/05/29 06:33:29;;;;;;;;;10.33;10.33;22.50;48.60;;;;;;4974481;28;8790;-77
2022/05/29 06:36:05;;;;;;;;;12.33;12.33;22.70;49.00;;;;;;4975264;28;8794;-77
2022/05/29 06:38:30;;;;;;;;;13.00;13.00;22.70;48.70;;;;;;4975023;28;8770;-77
2022/05/29 06:40:56;;;;;;;;;12.33;12.33;22.80;48.60;;;;;;4975323;28;8774;-78
2022/05/29 06:43:22;;;;;;;;;13.33;13.33;22.70;48.20;;;;;;4974722;28;8801;-77
2022/05/29 06:45:47;;;;;;;;;13.00;13.00;22.60;48.40;;;;;;4975236;28;9491;-77
2022/05/29 06:48:14;;;;;;;;;9.00;9.00;22.60;49.00;;;;;;4974932;28;8777;-77
2022/05/29 06:50:40;;;;;;;;;9.33;9.33;22.80;48.60;;;;;;4975211;28;8880;-77
2022/05/29 06:53:07;;;;;;;;;13.67;13.67;23.00;48.10;;;;;;4975163;28;9538;-78
2022/05/29 06:55:33;;;;;;;;;12.67;12.67;23.20;47.10;;;;;;4974875;28;8857;-78
2022/05/29 06:57:59;;;;;;;;;10.33;10.33;23.30;47.30;;;;;;4977504;28;11528;-79
2022/05/29 07:08:40;;;;;;;;;15.00;15.00;23.50;46.70;;;;;;4978069;28;8746;-79
2022/05/29 07:11:19;;;;;;;;;12.33;12.33;23.40;46.10;;;;;;4971670;28;9493;-78
2022/05/29 07:13:45;;;;;;;;;14.33;14.33;23.40;46.30;;;;;;4977718;28;8828;-78
2022/05/29 07:16:11;;;;;;;;;13.00;13.00;23.60;46.90;;;;;;4977375;28;8804;-76
2022/05/29 07:18:37;;;;;;;;;14.67;14.67;23.60;45.90;;;;;;4977606;28;8789;-80
2022/05/29 07:21:04;;;;;;;;;13.67;13.67;23.50;45.00;;;;;;4974863;28;8913;-80
2022/05/29 07:23:30;;;;;;;;;11.67;11.67;23.50;45.90;;;;;;4958483;28;8812;-76
2022/05/29 07:25:57;;;;;;;;;14.00;14.00;23.50;45.50;;;;;;4959053;28;9442;-78
2022/05/29 07:28:24;;;;;;;;;13.00;13.00;23.50;45.90;;;;;;4958567;28;8800;-77
2022/05/29 07:30:51;;;;;;;;;13.33;13.33;23.50;46.30;;;;;;4958733;28;9529;-77
2022/05/29 07:33:17;;;;;;;;;15.67;15.67;23.60;45.50;;;;;;4958696;28;8827;-78
2022/05/29 07:35:42;;;;;;;;;12.67;12.67;23.80;46.70;;;;;;4965566;28;8863;-75
2022/05/29 07:38:09;;;;;;;;;14.67;14.67;23.70;46.20;;;;;;4966291;28;8800;-79
2022/05/29 07:40:35;;;;;;;;;11.00;11.00;23.40;46.60;;;;;;4958395;28;8847;-73
2022/05/29 07:43:19;;;;;;;;;15.00;15.00;23.40;47.50;;;;;;4962158;28;8832;-75
2022/05/29 07:45:54;;;;;;;;;14.00;14.00;22.80;47.40;;;;;;4973861;28;8848;-75
2022/05/29 07:48:23;;;;;;;;;15.33;15.33;23.00;48.60;;;;;;4967663;28;9480;-78
2022/05/29 07:50:49;;;;;;;;;14.00;14.00;23.20;47.70;;;;;;4970122;28;8800;-75
2022/05/29 07:53:16;;;;;;;;;16.00;16.00;23.40;48.10;;;;;;4958618;28;8930;-73
2022/05/29 07:55:43;;;;;;;;;15.00;15.00;23.50;47.70;;;;;;4958331;28;8780;-74
2022/05/29 07:58:10;;;;;;;;;14.33;14.33;23.50;45.90;;;;;;4968894;28;8896;-74
2022/05/29 08:00:36;;;;;;;;;14.00;14.00;23.70;46.30;;;;;;4958038;28;9403;-74
2022/05/29 08:03:03;;;;;;;;;17.33;17.33;23.90;46.70;;;;;;4956242;28;8914;-75
2022/05/29 08:05:31;;;;;;;;;14.33;14.33;23.90;45.30;;;;;;4959542;28;8780;-72
2022/05/29 08:07:57;;;;;;;;;15.00;15.00;24.00;45.10;;;;;;4957191;28;8784;-74
2022/05/29 08:10:24;;;;;;;;;16.33;16.33;24.00;45.20;;;;;;4966358;28;9471;-75
2022/05/29 08:12:49;;;;;;;;;16.67;16.67;24.20;44.50;;;;;;4970994;28;8782;-76
2022/05/29 08:15:15;;;;;;;;;12.67;12.67;24.40;44.60;;;;;;4972020;28;8826;-78
2022/05/29 08:17:42;;;;;;;;;16.67;16.67;24.40;44.40;;;;;;4962525;28;8788;-79
2022/05/29 08:20:10;;;;;;;;;14.67;14.67;24.60;44.10;;;;;;4957644;28;8793;-75
2022/05/29 08:22:36;;;;;;;;;13.33;13.33;24.70;43.60;;;;;;4957481;28;8828;-76
2022/05/29 08:30:38;;;;;;;;;17.33;17.33;24.90;42.30;;;;;;4957400;28;8902;-77
2022/05/29 08:33:15;;;;;;;;;15.67;15.67;25.10;41.60;;;;;;4964067;28;8797;-74
2022/05/29 08:35:44;;;;;;;;;20.67;20.67;25.20;41.00;;;;;;4970377;28;8822;-72
2022/05/29 08:38:11;;;;;;;;;19.33;19.33;25.00;41.80;;;;;;4976924;28;8808;-72
2022/05/29 08:40:46;;;;;;;;;24.67;24.67;25.00;41.30;;;;;;4976459;28;8928;-71
2022/05/29 08:43:24;;;;;;;;;21.33;21.33;25.10;41.10;;;;;;4966938;28;8944;-72
2022/05/29 08:45:51;;;;;;;;;24.00;24.00;25.30;41.70;;;;;;4971568;28;8785;-69
2022/05/29 08:48:21;;;;;;;;;25.00;25.00;24.90;42.00;;;;;;4973718;28;8857;-70
2022/05/29 08:50:52;;;;;;;;;24.33;24.33;24.70;41.40;;;;;;4971882;28;8894;-71
2022/05/29 08:53:41;;;;;;;;;28.33;28.33;24.90;41.80;;;;;;4972329;28;8793;-71
2022/05/29 08:56:35;;;;;;;;;30.00;30.00;25.20;42.00;;;;;;4936495;28;8885;-72
2022/05/29 08:59:15;;;;;;;;;27.00;27.00;25.40;41.20;;;;;;4957214;28;9387;-73
2022/05/29 09:02:11;;;;;;;;;25.67;25.67;25.50;40.00;;;;;;4957143;28;8853;-73
2022/05/29 09:04:45;;;;;;;;;34.33;31.67;25.50;39.70;;;;;;4956696;28;9513;-75
2022/05/29 09:07:17;;;;;;;;;35.67;33.33;25.60;40.10;;;;;;4956619;28;8882;-74
2022/05/29 09:09:48;;;;;;;;;31.67;31.33;25.70;39.50;;;;;;4956565;28;8783;-74
2022/05/29 09:12:33;;;;;;;;;36.33;33.67;25.70;40.10;;;;;;4968604;28;8808;-78
2022/05/29 09:15:06;;;;;;;;;37.33;34.33;25.50;40.10;;;;;;4976291;28;8801;-75
2022/05/29 09:17:44;;;;;;;;;30.33;30.33;25.60;40.10;;;;;;4975949;28;8786;-74
2022/05/29 09:20:28;;;;;;;;;38.00;35.00;25.90;38.60;;;;;;4975836;28;8786;-78
2022/05/29 09:22:57;;;;;;;;;23.67;23.67;26.20;39.10;;;;;;4990966;28;8837;-78
2022/05/29 09:25:31;;;;;;;;;31.00;31.00;26.00;39.10;;;;;;4975919;28;8773;-79
2022/05/29 09:28:04;;;;;;;;;34.67;33.33;25.50;38.00;;;;;;4975780;28;8896;-77
2022/05/29 09:30:31;;;;;;;;;37.00;34.33;25.70;38.60;;;;;;4975876;28;8792;-73
2022/05/29 09:33:17;;;;;;;;;46.33;37.33;25.40;40.70;;;;;;4975983;28;8778;-75
2022/05/29 09:35:58;;;;;;;;;35.67;33.67;25.30;39.60;;;;;;4974565;28;8782;-79
2022/05/29 09:38:27;;;;;;;;;43.67;38.67;25.50;39.10;;;;;;4975891;28;8793;-77
2022/05/29 09:41:18;;;;;;;;;38.33;35.33;25.30;38.90;;;;;;4975731;28;9462;-79
2022/05/29 09:44:03;;;;;;;;;42.67;36.67;25.30;39.20;;;;;;4973338;28;8865;-77
2022/05/29 09:46:33;;;;;;;;;43.00;37.67;25.70;39.00;;;;;;4963598;28;9541;-76
2022/05/29 09:51:55;;;;;;;;;41.67;35.67;26.90;37.50;;;;;;4964053;28;8797;-75
2022/05/29 09:54:53;;;;;;;;;36.67;34.67;27.20;35.70;;;;;;4972048;28;9630;-74
2022/05/29 09:57:27;;;;;;;;;35.67;34.00;27.20;35.90;;;;;;4966518;28;8790;-71
2022/05/29 10:00:24;;;;;;;;;38.67;35.67;27.30;36.00;;;;;;4971861;28;8785;-72
2022/05/29 10:02:51;;;;;;;;;33.33;32.33;27.50;35.20;;;;;;4963711;28;8828;-72
2022/05/29 10:05:33;;;;;;;;;37.67;34.33;27.90;35.40;;;;;;4971177;28;8800;-74
2022/05/29 10:08:17;;;;;;;;;31.67;31.33;27.70;34.80;;;;;;4972952;28;8765;-73
2022/05/29 10:10:43;;;;;;;;;31.67;31.00;27.40;33.20;;;;;;4975776;28;8762;-73
2022/05/29 10:13:08;;;;;;;;;32.33;31.33;27.40;33.00;;;;;;4972170;28;8805;-74
2022/05/29 10:15:38;;;;;;;;;30.33;30.33;27.50;32.80;;;;;;4974277;28;8797;-73
2022/05/29 10:18:31;;;;;;;;;33.33;32.33;27.30;33.60;;;;;;4974880;28;8881;-75
2022/05/29 10:21:23;;;;;;;;;25.67;25.67;27.70;34.40;;;;;;4975341;28;8810;-75
2022/05/29 10:23:58;;;;;;;;;35.33;32.67;27.30;33.70;;;;;;4971923;28;8829;-73
2022/05/29 10:26:33;;;;;;;;;29.33;29.33;27.90;34.00;;;;;;4975464;28;8762;-72
2022/05/29 10:29:01;;;;;;;;;36.33;34.33;28.10;33.00;;;;;;4975350;28;8808;-72
2022/05/29 10:31:35;;;;;;;;;31.67;31.33;28.30;32.90;;;;;;4975811;28;8785;-73
2022/05/29 10:34:13;;;;;;;;;32.33;31.33;28.20;32.60;;;;;;4976069;28;8801;-72
2022/05/29 10:36:40;;;;;;;;;38.00;33.33;28.10;33.40;;;;;;4959569;28;8788;-72
2022/05/29 10:39:08;;;;;;;;;34.33;33.00;27.90;33.40;;;;;;4959485;28;8800;-78
2022/05/29 10:41:37;;;;;;;;;32.00;31.67;27.10;33.20;;;;;;4959738;28;8783;-75
2022/05/29 10:44:03;;;;;;;;;31.00;31.00;26.80;34.10;;;;;;4959007;28;8863;-75
2022/05/29 10:47:02;;;;;;;;;33.33;32.33;26.80;34.60;;;;;;4978396;28;8801;-74
2022/05/29 10:49:31;;;;;;;;;31.67;31.33;27.00;34.50;;;;;;4978617;28;8789;-76
2022/05/29 10:52:06;;;;;;;;;30.00;30.00;27.20;34.00;;;;;;4978798;28;9440;-73
2022/05/29 10:55:07;;;;;;;;;26.67;26.67;27.20;33.50;;;;;;4975342;28;8823;-72
2022/05/29 10:58:05;;;;;;;;;30.67;30.33;27.80;32.30;;;;;;4907004;28;8785;-72
2022/05/29 11:01:00;;;;;;;;;28.33;28.33;28.10;32.30;;;;;;4959433;28;8799;-72
2022/05/29 11:03:51;;;;;;;;;29.67;29.33;28.10;32.70;;;;;;4906971;28;9008;-72
2022/05/29 11:06:19;;;;;;;;;29.33;29.33;28.50;32.30;;;;;;4961635;28;8792;-71
2022/05/29 11:09:06;;;;;;;;;29.33;29.33;28.80;31.70;;;;;;4975303;28;8813;-71
2022/05/29 11:11:55;;;;;;;;;28.33;28.33;29.20;30.60;;;;;;4969650;28;8884;-71
2022/05/29 11:14:41;;;;;;;;;23.00;23.00;29.20;30.50;;;;;;4977054;28;8916;-71
2022/05/29 11:17:28;;;;;;;;;30.00;29.67;29.40;30.00;;;;;;4972823;28;8790;-71
2022/05/29 11:20:05;;;;;;;;;26.67;26.67;29.60;30.20;;;;;;4977792;28;8876;-71
2022/05/29 11:22:59;;;;;;;;;27.67;27.67;29.20;29.70;;;;;;4967027;28;8839;-72
2022/05/29 11:25:57;;;;;;;;;28.67;28.00;29.60;29.30;;;;;;4958734;28;8794;-72
2022/05/29 11:28:39;;;;;;;;;32.67;30.67;30.00;28.90;;;;;;4958622;28;8776;-72
2022/05/29 11:31:23;;;;;;;;;30.00;30.00;29.90;28.70;;;;;;4958675;28;8857;-72
2022/05/29 11:34:13;;;;;;;;;33.67;32.67;30.20;28.90;;;;;;4958602;28;8916;-72
2022/05/29 11:37:08;;;;;;;;;33.33;32.33;30.10;28.60;;;;;;4958561;28;8768;-72
2022/05/29 11:39:41;;;;;;;;;31.00;30.33;29.90;29.40;;;;;;4958711;28;8788;-72
2022/05/29 11:42:22;;;;;;;;;26.67;26.67;29.50;28.90;;;;;;4958570;28;8886;-72
2022/05/29 11:44:55;;;;;;;;;27.67;27.67;29.10;29.30;;;;;;4957247;28;8859;-72
2022/05/29 11:53:24;;;;;;;;;28.00;28.00;28.20;30.60;;;;;;4958232;28;8780;-72
2022/05/29 11:55:55;;;;;;;;;30.33;30.33;27.90;31.40;;;;;;4958211;28;8950;-72
2022/05/29 11:58:59;;;;;;;;;32.67;31.67;27.30;30.80;;;;;;4958157;28;8788;-72
2022/05/29 12:01:42;;;;;;;;;30.67;30.67;26.90;31.90;;;;;;4899032;29;8830;-72
2022/05/29 12:04:13;;;;;;;;;26.00;26.00;26.80;31.70;;;;;;4898917;29;8849;-72
2022/05/29 12:06:45;;;;;;;;;26.33;26.33;26.80;33.00;;;;;;4908072;29;8809;-72
2022/05/29 12:09:40;;;;;;;;;25.33;25.33;26.80;32.40;;;;;;4917360;29;8905;-74
2022/05/29 12:12:13;;;;;;;;;23.67;23.67;26.90;32.30;;;;;;4917081;29;8775;-75
2022/05/29 12:14:59;;;;;;;;;17.00;17.00;27.40;32.30;;;;;;4917729;29;8819;-74
2022/05/29 12:17:44;;;;;;;;;23.67;23.67;27.70;32.10;;;;;;4917562;29;8799;-74
2022/05/29 12:20:40;;;;;;;;;27.33;27.33;28.80;30.60;;;;;;4917867;29;9410;-74
2022/05/29 12:23:26;;;;;;;;;25.67;25.67;28.70;30.30;;;;;;4917259;29;8837;-74
2022/05/29 12:26:00;;;;;;;;;22.33;22.33;29.10;31.00;;;;;;4910618;29;8783;-73
2022/05/29 12:28:52;;;;;;;;;22.33;22.33;29.10;30.30;;;;;;4917480;29;8775;-73
2022/05/29 12:31:41;;;;;;;;;17.67;17.67;29.00;29.80;;;;;;4917087;29;8961;-73
2022/05/29 12:34:16;;;;;;;;;19.33;19.33;28.30;30.70;;;;;;4917214;29;11537;-73
2022/05/29 12:37:04;;;;;;;;;18.00;18.00;28.10;31.00;;;;;;4941984;28;11568;-74
2022/05/29 12:39:47;;;;;;;;;19.00;19.00;28.50;31.20;;;;;;4976640;28;8754;-75
2022/05/29 12:42:56;;;;;;;;;20.33;20.33;28.50;31.50;;;;;;4976800;28;8925;-74
2022/05/29 12:45:44;;;;;;;;;17.33;17.33;28.90;30.60;;;;;;4874946;28;9494;-74
2022/05/29 12:48:19;;;;;;;;;19.00;19.00;28.80;29.80;;;;;;4976802;28;8840;-73
2022/05/29 12:51:22;;;;;;;;;20.67;20.67;28.70;29.80;;;;;;4976433;28;8762;-74
2022/05/29 12:54:34;;;;;;;;;18.67;18.67;28.70;30.50;;;;;;4976246;28;12354;-74
2022/05/29 12:57:29;;;;;;;;;19.00;19.00;28.90;30.50;;;;;;4976346;28;11627;-75
2022/05/29 13:00:08;;;;;;;;;18.00;18.00;28.70;30.00;;;;;;4976360;28;11703;-75
2022/05/29 13:03:05;;;;;;;;;19.33;19.33;29.10;30.00;;;;;;4976333;28;12245;-75
2022/05/29 13:06:04;;;;;;;;;20.33;20.33;29.00;30.50;;;;;;4976038;28;11689;-75
2022/05/29 13:08:57;;;;;;;;;18.67;18.67;29.10;29.80;;;;;;4975984;28;11549;-75
2022/05/29 13:11:30;;;;;;;;;18.33;18.33;28.90;30.20;;;;;;4976262;28;12243;-75
2022/05/29 13:14:03;;;;;;;;;20.00;20.00;28.90;30.50;;;;;;4975930;28;11562;-75
2022/05/29 13:16:43;;;;;;;;;17.33;17.33;29.10;29.80;;;;;;4975829;28;11549;-75
2022/05/29 13:19:18;;;;;;;;;18.33;18.33;29.00;30.20;;;;;;4975924;28;11656;-75
2022/05/29 13:22:00;;;;;;;;;19.00;19.00;29.50;29.60;;;;;;4976023;28;11545;-75
2022/05/29 13:24:40;;;;;;;;;19.00;19.00;29.40;30.00;;;;;;4976037;28;11580;-75
2022/05/29 13:27:09;;;;;;;;;18.00;18.00;29.40;30.10;;;;;;4976430;28;11563;-75
2022/05/29 13:29:53;;;;;;;;;21.00;21.00;28.90;30.80;;;;;;4975893;28;11572;-75
2022/05/29 13:32:24;;;;;;;;;17.00;16.67;29.00;30.40;;;;;;4975969;28;8789;-75
2022/05/29 13:34:53;;;;;;;;;19.67;19.67;29.00;31.20;;;;;;4975708;28;11549;-74
2022/05/29 13:37:43;;;;;;;;;17.33;17.33;29.20;31.50;;;;;;4975406;28;12370;-74
2022/05/29 13:40:10;;;;;;;;;18.67;18.67;28.90;30.90;;;;;;4975416;28;11536;-73
2022/05/29 13:42:39;;;;;;;;;19.67;19.67;28.70;31.00;;;;;;4975350;28;11572;-74
2022/05/29 13:45:23;;;;;;;;;20.67;20.67;28.90;30.60;;;;;;4975210;28;11650;-74
2022/05/29 13:48:12;;;;;;;;;17.67;17.67;28.90;30.40;;;;;;4975476;28;8800;-74